Time;durP1;ratioP1;P1;durP2;ratioP2;P2;SDS_P1;SDS_P2;PMS_P1;PMS_P2;Temp;Humidity;BMP_temperature;BMP_pressure;BME280_temperature;BME280_humidity;BME280_pressure;Samples;Min_cycle;Max_cycle;Signal;HPM_P1;HPM_P2
2023/08/08 00:00:47;;;;;;;1.92;0.98;;;18.00;57.70;;;;;;5064525;28;20436;-71
2023/08/08 00:03:14;;;;;;;1.58;1.05;;;18.00;57.80;;;;;;5055972;28;20032;-70
2023/08/08 00:05:40;;;;;;;2.45;1.00;;;18.00;57.80;;;;;;5064010;28;20032;-70
2023/08/08 00:08:06;;;;;;;1.95;0.93;;;18.00;58.00;;;;;;5056350;28;20085;-70
2023/08/08 00:10:32;;;;;;;2.80;1.33;;;18.00;58.10;;;;;;5051668;28;20040;-70
2023/08/08 00:12:58;;;;;;;3.45;1.35;;;18.00;58.20;;;;;;5073492;28;20036;-71
2023/08/08 00:15:24;;;;;;;3.22;1.30;;;17.90;58.20;;;;;;5073143;28;20040;-70
2023/08/08 00:17:53;;;;;;;3.53;1.33;;;17.90;58.30;;;;;;5070333;28;20036;-71
2023/08/08 00:20:19;;;;;;;5.55;2.15;;;17.90;58.40;;;;;;5064921;28;20512;-70
2023/08/08 00:22:45;;;;;;;2.05;1.55;;;17.90;58.40;;;;;;5075658;28;20032;-70
2023/08/08 00:25:11;;;;;;;2.40;1.17;;;17.90;58.50;;;;;;5065484;28;20063;-71
2023/08/08 00:27:41;;;;;;;2.28;1.20;;;17.90;58.60;;;;;;5067652;28;20072;-70
2023/08/08 00:30:09;;;;;;;3.80;1.65;;;17.90;58.70;;;;;;5077123;28;20521;-70
2023/08/08 00:32:35;;;;;;;2.45;1.30;;;17.90;58.80;;;;;;5068647;28;20090;-70
2023/08/08 00:35:02;;;;;;;1.80;1.10;;;17.80;58.80;;;;;;5061895;28;20686;-70
2023/08/08 00:37:28;;;;;;;2.00;1.30;;;17.80;58.80;;;;;;5055312;28;20519;-70
2023/08/08 00:39:54;;;;;;;1.98;1.10;;;17.80;58.90;;;;;;5075091;28;20040;-71
2023/08/08 00:42:20;;;;;;;5.88;1.50;;;17.80;59.10;;;;;;5076755;28;20107;-70
2023/08/08 00:44:51;;;;;;;2.83;1.30;;;17.80;59.10;;;;;;5075148;28;20491;-70
2023/08/08 00:47:18;;;;;;;1.98;1.27;;;17.80;59.20;;;;;;5060351;28;20033;-70
2023/08/08 00:49:46;;;;;;;3.13;1.42;;;17.80;59.30;;;;;;5063119;28;20028;-70
2023/08/08 00:52:13;;;;;;;2.70;1.17;;;17.80;59.40;;;;;;5065080;28;20498;-70
2023/08/08 00:54:40;;;;;;;2.95;1.27;;;17.80;59.40;;;;;;5066093;28;20428;-71
2023/08/08 00:57:06;;;;;;;1.45;1.00;;;17.80;59.50;;;;;;5061236;28;20068;-70
2023/08/08 00:59:33;;;;;;;3.20;1.20;;;17.80;59.60;;;;;;5056423;28;20040;-71
2023/08/08 01:01:59;;;;;;;1.80;1.20;;;17.70;59.50;;;;;;5062171;28;20032;-71
2023/08/08 01:04:26;;;;;;;4.70;1.52;;;17.70;59.50;;;;;;5062341;28;20040;-71
2023/08/08 01:07:07;;;;;;;1.90;1.35;;;17.70;59.60;;;;;;5061176;28;20067;-71
2023/08/08 01:09:43;;;;;;;5.32;1.10;;;17.70;59.70;;;;;;5059262;28;20029;-71
2023/08/08 01:12:16;;;;;;;1.88;1.20;;;17.70;59.60;;;;;;5062069;28;20363;-71
2023/08/08 01:14:48;;;;;;;1.50;0.80;;;17.70;59.70;;;;;;5062012;28;20098;-71
2023/08/08 01:17:18;;;;;;;1.85;0.80;;;17.70;59.70;;;;;;5061712;28;20477;-71
2023/08/08 01:19:44;;;;;;;3.00;1.10;;;17.70;59.80;;;;;;5060252;28;20153;-71
2023/08/08 01:22:23;;;;;;;1.65;0.90;;;17.70;59.90;;;;;;5061182;28;20078;-69
2023/08/08 01:24:52;;;;;;;1.33;1.13;;;17.70;60.00;;;;;;5062617;28;20039;-69
2023/08/08 01:27:18;;;;;;;2.42;0.95;;;17.70;60.00;;;;;;5061370;28;20036;-69
2023/08/08 01:29:44;;;;;;;1.17;0.90;;;17.60;59.90;;;;;;5055202;28;20047;-69
2023/08/08 01:32:10;;;;;;;4.90;1.10;;;17.60;60.00;;;;;;5058165;28;20040;-69
2023/08/08 01:34:37;;;;;;;2.28;1.13;;;17.60;60.10;;;;;;5060720;28;20056;-70
2023/08/08 01:37:10;;;;;;;2.45;1.25;;;17.60;60.20;;;;;;5056731;28;20646;-70
2023/08/08 01:39:39;;;;;;;0.90;0.90;;;17.60;60.40;;;;;;5059286;28;20028;-69
2023/08/08 01:42:06;;;;;;;3.58;1.10;;;17.60;60.40;;;;;;5042424;28;20043;-69
2023/08/08 01:44:34;;;;;;;1.30;0.70;;;17.60;60.50;;;;;;5060386;28;20093;-69
2023/08/08 01:47:01;;;;;;;2.55;1.00;;;17.60;60.60;;;;;;5066837;28;20043;-70
2023/08/08 01:49:27;;;;;;;1.38;0.73;;;17.60;60.70;;;;;;5067795;28;20033;-70
2023/08/08 01:51:58;;;;;;;1.50;0.63;;;17.60;60.80;;;;;;5071201;28;20597;-69
2023/08/08 01:54:24;;;;;;;2.20;0.57;;;17.60;60.90;;;;;;5069601;28;20032;-72
2023/08/08 01:56:50;;;;;;;2.08;0.85;;;17.60;61.00;;;;;;5069508;28;20104;-70
2023/08/08 01:59:16;;;;;;;1.75;0.80;;;17.60;61.00;;;;;;5066861;28;20076;-70
2023/08/08 02:01:43;;;;;;;0.88;0.55;;;17.60;61.20;;;;;;5075713;28;20032;-72
2023/08/08 02:04:09;;;;;;;2.55;1.00;;;17.60;61.20;;;;;;5075802;28;20032;-71
2023/08/08 02:06:35;;;;;;;1.65;0.77;;;17.60;61.30;;;;;;5079053;28;20115;-71
2023/08/08 02:09:00;;;;;;;2.72;0.80;;;17.60;61.40;;;;;;5060269;28;20111;-71
2023/08/08 02:11:26;;;;;;;1.60;0.60;;;17.60;61.40;;;;;;5077702;28;20426;-71
2023/08/08 02:13:53;;;;;;;2.83;1.05;;;17.60;61.50;;;;;;5075250;28;20036;-71
2023/08/08 02:16:19;;;;;;;1.35;0.77;;;17.50;61.40;;;;;;5075992;28;20065;-71
2023/08/08 02:18:45;;;;;;;3.05;0.80;;;17.50;61.40;;;;;;5061885;28;20482;-72
2023/08/08 02:21:11;;;;;;;1.02;0.75;;;17.50;61.60;;;;;;5065926;28;20042;-71
2023/08/08 02:23:37;;;;;;;1.33;0.60;;;17.50;61.70;;;;;;5072353;28;20081;-71
2023/08/08 02:26:03;;;;;;;1.85;0.60;;;17.50;61.90;;;;;;5075888;28;20028;-71
2023/08/08 02:28:29;;;;;;;1.95;0.60;;;17.50;62.00;;;;;;5071218;28;20028;-71
2023/08/08 02:30:55;;;;;;;0.65;0.60;;;17.50;62.20;;;;;;5076886;28;20035;-71
2023/08/08 02:33:21;;;;;;;1.65;0.60;;;17.50;62.30;;;;;;5076136;28;20051;-71
2023/08/08 02:35:47;;;;;;;2.22;0.70;;;17.40;62.30;;;;;;5077554;28;20040;-71
2023/08/08 02:38:13;;;;;;;1.17;0.60;;;17.40;62.50;;;;;;5061951;28;20579;-70
2023/08/08 02:40:40;;;;;;;2.28;0.75;;;17.40;62.60;;;;;;5076954;28;20516;-70
2023/08/08 02:43:09;;;;;;;2.08;1.08;;;17.40;62.80;;;;;;5060341;28;20056;-70
2023/08/08 02:45:35;;;;;;;2.30;1.17;;;17.40;63.00;;;;;;5068073;28;20040;-70
2023/08/08 02:48:01;;;;;;;1.45;0.70;;;17.40;63.10;;;;;;5056349;28;20036;-70
2023/08/08 02:50:27;;;;;;;1.45;0.95;;;17.40;63.20;;;;;;5064793;28;20480;-69
2023/08/08 02:52:53;;;;;;;0.90;0.77;;;17.40;63.30;;;;;;5074473;28;20039;-70
2023/08/08 02:55:23;;;;;;;2.17;0.82;;;17.30;63.30;;;;;;5061023;28;20040;-70
2023/08/08 02:57:50;;;;;;;2.10;0.82;;;17.30;63.40;;;;;;5065703;28;20028;-70
2023/08/08 03:00:17;;;;;;;4.15;0.88;;;17.30;63.60;;;;;;5065215;28;20036;-70
2023/08/08 03:02:47;;;;;;;1.05;0.95;;;17.30;63.60;;;;;;5067795;28;20036;-70
2023/08/08 03:05:15;;;;;;;2.28;1.05;;;17.30;63.70;;;;;;5074284;28;20705;-70
2023/08/08 03:07:41;;;;;;;4.60;1.23;;;17.30;63.80;;;;;;5060976;28;20044;-70
2023/08/08 03:10:08;;;;;;;2.03;0.95;;;17.30;63.90;;;;;;5069732;28;20032;-70
2023/08/08 03:12:34;;;;;;;2.15;1.35;;;17.30;64.00;;;;;;5077077;28;20047;-71
2023/08/08 03:15:01;;;;;;;2.20;0.93;;;17.20;63.80;;;;;;5071364;28;20033;-70
2023/08/08 03:17:27;;;;;;;2.80;1.25;;;17.20;63.90;;;;;;5067549;28;20043;-70
2023/08/08 03:19:55;;;;;;;2.95;1.15;;;17.20;64.00;;;;;;5073552;28;20037;-70
2023/08/08 03:22:22;;;;;;;1.85;1.15;;;17.20;64.10;;;;;;5059876;28;20032;-70
2023/08/08 03:24:48;;;;;;;3.08;1.10;;;17.20;64.10;;;;;;5070210;28;20039;-70
2023/08/08 03:27:14;;;;;;;1.13;1.02;;;17.20;64.20;;;;;;5072291;28;20093;-70
2023/08/08 03:29:42;;;;;;;0.90;0.80;;;17.10;64.10;;;;;;5065266;28;20048;-70
2023/08/08 03:32:08;;;;;;;1.30;0.82;;;17.10;64.20;;;;;;5077792;28;20249;-70
2023/08/08 03:34:34;;;;;;;1.38;0.80;;;17.10;64.30;;;;;;5074858;28;20059;-70
2023/08/08 03:37:02;;;;;;;2.28;1.00;;;17.10;64.80;;;;;;5069905;28;20478;-70
2023/08/08 03:39:28;;;;;;;1.77;0.90;;;17.10;64.50;;;;;;5072765;28;20039;-70
2023/08/08 03:41:54;;;;;;;2.83;1.02;;;17.10;64.60;;;;;;5083987;28;20036;-70
2023/08/08 03:44:20;;;;;;;1.25;0.82;;;17.00;64.50;;;;;;5075431;28;20071;-69
2023/08/08 03:46:47;;;;;;;1.65;0.95;;;17.00;64.60;;;;;;5063776;28;20032;-68
2023/08/08 03:49:13;;;;;;;3.22;1.80;;;17.00;64.70;;;;;;5066906;28;20028;-69
2023/08/08 03:51:39;;;;;;;3.60;1.33;;;17.00;64.80;;;;;;5066737;28;20032;-68
2023/08/08 03:54:05;;;;;;;0.88;0.88;;;17.00;64.90;;;;;;5077667;28;20131;-70
2023/08/08 03:56:32;;;;;;;1.83;0.77;;;17.00;65.00;;;;;;5061385;28;20556;-70
2023/08/08 03:58:58;;;;;;;1.25;0.90;;;17.00;65.10;;;;;;5063564;28;20036;-70
2023/08/08 04:01:24;;;;;;;1.48;1.00;;;16.90;65.00;;;;;;5070963;28;20036;-69
2023/08/08 04:03:50;;;;;;;1.10;0.90;;;16.90;65.10;;;;;;5075939;28;20036;-70
2023/08/08 04:06:16;;;;;;;1.58;1.05;;;16.90;65.20;;;;;;5074335;28;20467;-71
2023/08/08 04:08:42;;;;;;;1.10;0.90;;;17.00;65.40;;;;;;5059861;28;20040;-70
2023/08/08 04:11:08;;;;;;;1.67;0.98;;;16.90;65.30;;;;;;5083301;28;20058;-69
2023/08/08 04:13:34;;;;;;;3.20;0.98;;;16.90;65.40;;;;;;5065669;28;20020;-70
2023/08/08 04:16:01;;;;;;;2.72;1.17;;;16.90;65.50;;;;;;5082872;28;20552;-70
2023/08/08 04:18:27;;;;;;;1.63;1.00;;;16.90;65.50;;;;;;5062231;28;20111;-69
2023/08/08 04:20:53;;;;;;;1.90;0.80;;;16.90;65.60;;;;;;5070967;28;20038;-70
2023/08/08 04:23:19;;;;;;;2.63;1.73;;;16.90;65.70;;;;;;5078836;28;20017;-70
2023/08/08 04:25:45;;;;;;;1.02;0.68;;;16.90;65.80;;;;;;5082667;28;20094;-70
2023/08/08 04:28:11;;;;;;;1.88;1.10;;;16.90;65.80;;;;;;5068852;28;20051;-70
2023/08/08 04:30:37;;;;;;;1.88;0.90;;;16.90;65.80;;;;;;5082457;28;20024;-70
2023/08/08 04:33:04;;;;;;;2.22;0.95;;;16.90;65.90;;;;;;5078483;28;20032;-69
2023/08/08 04:35:29;;;;;;;1.98;0.80;;;16.80;65.80;;;;;;5082024;28;20092;-69
2023/08/08 04:37:55;;;;;;;1.00;0.90;;;16.80;65.80;;;;;;5079919;28;20205;-70
2023/08/08 04:40:21;;;;;;;2.30;1.55;;;16.80;65.80;;;;;;5082362;28;20036;-70
2023/08/08 04:42:47;;;;;;;1.15;1.00;;;16.80;65.90;;;;;;5079793;28;20050;-70
2023/08/08 04:45:14;;;;;;;1.35;0.98;;;16.80;65.90;;;;;;5068246;28;20560;-70
2023/08/08 04:47:40;;;;;;;1.08;0.98;;;16.80;66.00;;;;;;5052166;28;20036;-70
2023/08/08 04:50:06;;;;;;;1.48;1.20;;;16.80;66.10;;;;;;5063019;28;20040;-70
2023/08/08 04:52:33;;;;;;;3.03;0.90;;;16.80;66.10;;;;;;5075221;28;20037;-70
2023/08/08 04:54:58;;;;;;;1.77;1.02;;;16.80;66.20;;;;;;5075948;28;20144;-68
2023/08/08 04:57:24;;;;;;;1.85;0.98;;;16.80;66.20;;;;;;5062048;28;20033;-68
2023/08/08 04:59:50;;;;;;;1.95;1.10;;;16.80;66.30;;;;;;5066100;28;20039;-69
2023/08/08 05:02:17;;;;;;;0.90;0.90;;;16.80;66.40;;;;;;5061694;28;20033;-69
2023/08/08 05:04:43;;;;;;;2.55;1.10;;;16.80;66.90;;;;;;5060813;28;20036;-69
2023/08/08 05:07:09;;;;;;;1.52;1.30;;;16.80;66.40;;;;;;5067980;28;20115;-71
2023/08/08 05:09:35;;;;;;;1.35;1.25;;;16.80;66.50;;;;;;5063670;28;20123;-70
2023/08/08 05:12:01;;;;;;;2.17;1.20;;;16.80;66.50;;;;;;5069392;28;20040;-70
2023/08/08 05:14:27;;;;;;;1.58;1.48;;;16.80;66.60;;;;;;5058843;28;20060;-70
2023/08/08 05:16:53;;;;;;;1.88;1.30;;;16.80;66.60;;;;;;5061907;28;20075;-70
2023/08/08 05:19:20;;;;;;;1.92;1.30;;;16.70;66.40;;;;;;5061967;28;20056;-70
2023/08/08 05:21:45;;;;;;;3.28;1.35;;;16.80;66.60;;;;;;5061808;28;20089;-70
2023/08/08 05:24:11;;;;;;;1.50;1.20;;;16.80;66.60;;;;;;5054800;28;20101;-69
2023/08/08 05:26:37;;;;;;;2.22;1.40;;;16.80;66.60;;;;;;5056500;28;20070;-70
2023/08/08 05:29:03;;;;;;;2.80;1.20;;;16.80;66.70;;;;;;5046044;28;20035;-70
2023/08/08 05:31:29;;;;;;;3.13;1.63;;;16.80;66.70;;;;;;5053924;28;20043;-71
2023/08/08 05:33:55;;;;;;;2.17;1.58;;;16.80;66.70;;;;;;5053438;28;20037;-71
2023/08/08 05:36:21;;;;;;;1.98;1.45;;;16.80;66.80;;;;;;5043635;28;20037;-71
2023/08/08 05:38:47;;;;;;;1.83;1.70;;;16.80;67.00;;;;;;5048684;28;20035;-70
2023/08/08 05:41:13;;;;;;;3.78;1.60;;;16.80;67.20;;;;;;5060776;28;20331;-71
2023/08/08 05:43:39;;;;;;;2.63;1.60;;;16.80;67.30;;;;;;5052290;28;20229;-71
2023/08/08 05:46:05;;;;;;;2.28;1.73;;;16.80;67.60;;;;;;5067501;28;20040;-70
2023/08/08 05:48:32;;;;;;;2.60;2.05;;;16.70;67.60;;;;;;5049267;28;20139;-71
2023/08/08 05:50:58;;;;;;;3.08;1.70;;;16.80;67.90;;;;;;5056158;28;20298;-70
2023/08/08 05:53:24;;;;;;;2.30;1.85;;;16.70;67.80;;;;;;5053639;28;20392;-70
2023/08/08 05:55:51;;;;;;;3.60;2.08;;;16.80;68.20;;;;;;5068257;28;20052;-70
2023/08/08 05:58:17;;;;;;;3.20;1.60;;;16.80;68.20;;;;;;5062361;28;20036;-69
2023/08/08 06:00:43;;;;;;;3.30;2.25;;;16.80;68.30;;;;;;5054686;28;20166;-71
2023/08/08 06:03:09;;;;;;;3.33;1.75;;;16.80;68.40;;;;;;5057781;28;20028;-73
2023/08/08 06:05:35;;;;;;;2.38;1.88;;;16.80;68.40;;;;;;5057340;28;20059;-70
2023/08/08 06:08:01;;;;;;;5.13;1.88;;;16.80;68.50;;;;;;5052528;28;20481;-71
2023/08/08 06:10:28;;;;;;;3.78;1.48;;;16.90;68.70;;;;;;5060599;28;20045;-71
2023/08/08 06:12:54;;;;;;;2.42;1.98;;;16.90;68.80;;;;;;5058769;28;20036;-71
2023/08/08 06:15:20;;;;;;;3.05;1.70;;;16.90;68.90;;;;;;5061493;28;20036;-71
2023/08/08 06:17:46;;;;;;;4.80;2.50;;;16.90;68.90;;;;;;5036504;28;20025;-71
2023/08/08 06:20:13;;;;;;;5.20;1.95;;;16.90;69.10;;;;;;5064752;28;20032;-71
2023/08/08 06:22:41;;;;;;;3.92;2.20;;;16.90;69.10;;;;;;5052744;28;20033;-71
2023/08/08 06:25:07;;;;;;;1.85;1.38;;;17.00;69.40;;;;;;5060911;28;20120;-71
2023/08/08 06:27:33;;;;;;;2.13;1.67;;;17.00;69.40;;;;;;5063754;28;20032;-70
2023/08/08 06:29:59;;;;;;;3.55;2.05;;;17.00;69.40;;;;;;5068128;28;20039;-70
2023/08/08 06:32:25;;;;;;;2.13;1.50;;;17.00;69.50;;;;;;5056162;28;20043;-70
2023/08/08 06:34:52;;;;;;;1.95;1.35;;;17.10;69.70;;;;;;5069024;28;20051;-71
2023/08/08 06:37:18;;;;;;;2.00;1.50;;;17.00;69.60;;;;;;5063390;28;20047;-70
2023/08/08 06:39:44;;;;;;;1.42;1.10;;;17.10;69.90;;;;;;5068815;28;20508;-71
2023/08/08 06:42:10;;;;;;;3.42;1.50;;;17.10;69.90;;;;;;5048991;28;20107;-71
2023/08/08 06:44:50;;;;;;;3.33;2.03;;;17.10;70.00;;;;;;5068859;28;20035;-70
2023/08/08 06:47:17;;;;;;;2.22;1.40;;;17.10;70.00;;;;;;5059754;28;20376;-70
2023/08/08 06:49:48;;;;;;;4.15;1.50;;;17.10;70.00;;;;;;5051966;28;20064;-71
2023/08/08 06:52:17;;;;;;;6.00;1.67;;;17.10;70.00;;;;;;5057055;28;20686;-71
2023/08/08 06:54:43;;;;;;;1.85;1.42;;;17.10;70.10;;;;;;5058697;28;20110;-70
2023/08/08 06:57:10;;;;;;;1.75;1.40;;;17.10;70.10;;;;;;5061312;28;20409;-71
2023/08/08 06:59:39;;;;;;;2.47;1.17;;;17.20;70.30;;;;;;5053611;28;20041;-71
2023/08/08 07:02:06;;;;;;;2.63;1.80;;;17.20;70.30;;;;;;5057774;28;20090;-71
2023/08/08 07:04:32;;;;;;;1.73;1.42;;;17.30;70.40;;;;;;5059145;28;20127;-71
2023/08/08 07:06:58;;;;;;;2.22;1.90;;;17.30;70.40;;;;;;5064620;28;20059;-70
2023/08/08 07:09:24;;;;;;;2.20;1.60;;;17.30;70.40;;;;;;5051205;28;20028;-69
2023/08/08 07:11:50;;;;;;;2.08;1.52;;;17.40;70.70;;;;;;5059811;28;20059;-69
2023/08/08 07:14:16;;;;;;;2.17;1.75;;;17.50;70.80;;;;;;5058104;28;20124;-70
2023/08/08 07:16:43;;;;;;;3.17;1.73;;;17.60;70.90;;;;;;5059475;28;20492;-69
2023/08/08 07:19:10;;;;;;;1.70;1.60;;;17.60;70.80;;;;;;5055570;28;20179;-69
2023/08/08 07:21:36;;;;;;;1.98;1.10;;;17.70;70.80;;;;;;5053271;28;20083;-70
2023/08/08 07:24:05;;;;;;;2.90;1.20;;;17.80;70.80;;;;;;5055428;28;20029;-70
2023/08/08 07:26:31;;;;;;;3.10;1.27;;;17.90;70.70;;;;;;5055333;28;20131;-69
2023/08/08 07:28:57;;;;;;;2.83;1.52;;;17.90;70.50;;;;;;5056802;28;20028;-70
2023/08/08 07:31:26;;;;;;;1.25;1.10;;;18.00;70.50;;;;;;5057602;28;20045;-69
2023/08/08 07:33:53;;;;;;;2.33;1.45;;;18.10;70.50;;;;;;5058268;28;20048;-69
2023/08/08 07:36:19;;;;;;;1.73;1.10;;;18.20;70.60;;;;;;5061886;28;20463;-69
2023/08/08 07:38:45;;;;;;;1.60;1.10;;;18.30;70.50;;;;;;5056031;28;20028;-70
2023/08/08 07:41:11;;;;;;;1.38;1.00;;;18.50;70.40;;;;;;5051938;28;20484;-70
2023/08/08 07:43:38;;;;;;;0.85;0.73;;;18.60;70.20;;;;;;5057408;28;20554;-70
2023/08/08 07:46:04;;;;;;;1.40;1.17;;;18.80;70.10;;;;;;5051764;28;20537;-70
2023/08/08 07:48:30;;;;;;;1.30;1.20;;;18.90;69.90;;;;;;5055422;28;20029;-70
2023/08/08 07:50:56;;;;;;;2.75;1.30;;;19.00;69.90;;;;;;5063723;28;20388;-69
2023/08/08 07:53:23;;;;;;;3.25;1.10;;;19.00;69.60;;;;;;5055230;28;20029;-70
2023/08/08 07:55:49;;;;;;;2.70;1.30;;;19.10;69.60;;;;;;5059814;28;20054;-69
2023/08/08 07:58:15;;;;;;;1.85;1.20;;;19.10;69.50;;;;;;5056365;28;20029;-70
2023/08/08 08:00:41;;;;;;;1.73;1.45;;;19.30;69.60;;;;;;5062449;28;20492;-69
2023/08/08 08:03:09;;;;;;;2.42;1.10;;;19.30;69.40;;;;;;5059187;28;20496;-70
2023/08/08 08:05:37;;;;;;;1.80;1.10;;;19.40;69.40;;;;;;5061299;28;20044;-69
2023/08/08 08:08:03;;;;;;;1.40;1.00;;;19.50;69.30;;;;;;5054287;28;20023;-69
2023/08/08 08:10:29;;;;;;;1.00;0.90;;;19.50;69.10;;;;;;5056189;28;20055;-70
2023/08/08 08:12:58;;;;;;;2.15;1.13;;;19.60;69.10;;;;;;5061789;28;20055;-70
2023/08/08 08:15:25;;;;;;;1.98;1.35;;;19.70;69.10;;;;;;5058001;28;20085;-69
2023/08/08 08:17:51;;;;;;;1.50;0.90;;;19.70;68.80;;;;;;5059531;28;20103;-70
2023/08/08 08:20:17;;;;;;;1.05;0.95;;;19.80;68.90;;;;;;5061390;28;20029;-69
2023/08/08 08:22:48;;;;;;;1.35;1.23;;;19.80;68.70;;;;;;5055654;28;20109;-70
2023/08/08 08:25:15;;;;;;;1.80;1.00;;;19.80;68.70;;;;;;5059631;28;20044;-69
2023/08/08 08:27:41;;;;;;;0.80;0.77;;;19.80;68.70;;;;;;5053109;28;20447;-69
2023/08/08 08:30:09;;;;;;;1.65;0.90;;;19.70;68.50;;;;;;5060729;28;20295;-69
2023/08/08 08:32:44;;;;;;;2.28;0.88;;;19.70;68.50;;;;;;5060668;28;20499;-69
2023/08/08 08:35:12;;;;;;;1.63;0.85;;;19.70;68.60;;;;;;5052452;28;20129;-69
2023/08/08 08:37:38;;;;;;;0.77;0.77;;;19.70;68.60;;;;;;5057904;28;20047;-69
2023/08/08 08:40:05;;;;;;;0.80;0.80;;;19.70;68.70;;;;;;5062487;28;20036;-69
2023/08/08 08:42:35;;;;;;;1.33;0.95;;;19.70;68.70;;;;;;5057175;28;20238;-69
2023/08/08 08:45:05;;;;;;;1.15;0.90;;;19.70;68.60;;;;;;5056477;28;20032;-69
2023/08/08 08:47:32;;;;;;;2.35;0.90;;;19.70;68.60;;;;;;5061326;28;20420;-70
2023/08/08 08:50:01;;;;;;;2.13;0.90;;;19.70;68.60;;;;;;5068577;28;20075;-69
2023/08/08 08:52:27;;;;;;;1.77;1.13;;;19.70;68.60;;;;;;5063071;28;20447;-69
2023/08/08 08:54:53;;;;;;;2.03;1.10;;;19.70;68.60;;;;;;5065203;28;20062;-70
2023/08/08 08:57:25;;;;;;;1.73;1.23;;;19.70;68.70;;;;;;5067878;28;20364;-69
2023/08/08 08:59:54;;;;;;;1.05;0.95;;;19.70;68.80;;;;;;5061465;28;20040;-69
2023/08/08 09:02:26;;;;;;;0.80;0.80;;;19.70;68.80;;;;;;5057727;28;20040;-69
2023/08/08 09:04:54;;;;;;;1.95;1.13;;;19.70;68.90;;;;;;5062953;28;20480;-69
2023/08/08 09:07:22;;;;;;;2.03;1.27;;;19.70;68.90;;;;;;5055323;28;20152;-71
2023/08/08 09:09:49;;;;;;;1.02;0.93;;;19.70;68.90;;;;;;5057792;28;20058;-69
2023/08/08 09:12:16;;;;;;;1.13;1.00;;;19.80;69.00;;;;;;5066063;28;20036;-69
2023/08/08 09:14:42;;;;;;;1.23;1.00;;;19.80;69.50;;;;;;5065515;28;20055;-70
2023/08/08 09:17:13;;;;;;;1.80;1.10;;;19.90;69.00;;;;;;5069275;28;20543;-70
2023/08/08 09:19:44;;;;;;;2.42;0.90;;;20.00;69.10;;;;;;5061492;28;20491;-71
2023/08/08 09:22:10;;;;;;;1.33;1.10;;;20.00;68.90;;;;;;5064748;28;20039;-70
2023/08/08 09:24:40;;;;;;;1.00;1.00;;;20.10;69.00;;;;;;5064309;28;20039;-71
2023/08/08 09:27:07;;;;;;;2.38;1.17;;;20.20;69.10;;;;;;5049011;28;20033;-70
2023/08/08 09:29:37;;;;;;;1.63;0.98;;;20.20;69.00;;;;;;5062494;28;20106;-70
2023/08/08 09:32:04;;;;;;;2.15;1.40;;;20.20;68.90;;;;;;5059690;28;20058;-70
2023/08/08 09:34:31;;;;;;;1.17;0.75;;;20.30;69.10;;;;;;5072819;28;20059;-70
2023/08/08 09:36:58;;;;;;;1.45;1.02;;;20.30;69.00;;;;;;5060007;28;20036;-70
2023/08/08 09:39:24;;;;;;;1.33;1.10;;;20.30;69.00;;;;;;5060183;28;20090;-70
2023/08/08 09:41:50;;;;;;;3.13;1.65;;;20.30;69.00;;;;;;5052833;28;20340;-70
2023/08/08 09:44:17;;;;;;;1.73;0.93;;;20.40;69.10;;;;;;5058209;28;20032;-68
2023/08/08 09:46:43;;;;;;;1.42;1.23;;;20.40;69.10;;;;;;5061639;28;20032;-70
2023/08/08 09:49:13;;;;;;;1.52;1.25;;;20.50;69.20;;;;;;5057581;28;20025;-71
2023/08/08 09:51:40;;;;;;;1.08;1.00;;;20.50;69.10;;;;;;5060167;28;20175;-70
2023/08/08 09:54:06;;;;;;;1.85;0.98;;;20.60;69.10;;;;;;5052943;28;20575;-69
2023/08/08 09:56:34;;;;;;;1.15;0.90;;;20.70;69.20;;;;;;5059774;28;20036;-69
2023/08/08 09:59:01;;;;;;;2.47;0.82;;;20.70;69.00;;;;;;5055096;28;20028;-69
2023/08/08 10:01:31;;;;;;;2.67;1.15;;;20.80;69.10;;;;;;5065570;28;20037;-69
2023/08/08 10:03:59;;;;;;;1.75;1.00;;;20.90;69.10;;;;;;5061075;28;20434;-69
2023/08/08 10:06:26;;;;;;;1.80;1.20;;;20.90;69.00;;;;;;5059791;28;20501;-72
2023/08/08 10:08:52;;;;;;;3.72;1.70;;;21.00;69.00;;;;;;5048274;28;20033;-70
2023/08/08 10:11:23;;;;;;;1.30;1.20;;;21.10;69.10;;;;;;5061352;28;20405;-69
2023/08/08 10:13:50;;;;;;;3.05;0.90;;;21.20;69.10;;;;;;5058523;28;20033;-69
2023/08/08 10:16:18;;;;;;;2.13;1.05;;;21.30;69.00;;;;;;5057282;28;20495;-69
2023/08/08 10:18:46;;;;;;;2.67;1.33;;;21.40;68.90;;;;;;5055487;28;20490;-69
2023/08/08 10:21:12;;;;;;;2.20;1.20;;;21.50;68.80;;;;;;5058094;28;20472;-69
2023/08/08 10:23:39;;;;;;;1.17;0.95;;;21.70;68.70;;;;;;5057627;28;20094;-69
2023/08/08 10:26:21;;;;;;;2.00;1.40;;;21.90;68.70;;;;;;5058484;28;20108;-70
2023/08/08 10:28:56;;;;;;;2.67;1.35;;;22.00;68.50;;;;;;5064645;28;20436;-70
2023/08/08 10:31:22;;;;;;;1.60;1.10;;;22.20;68.50;;;;;;5057347;28;20089;-71
2023/08/08 10:33:49;;;;;;;1.17;1.10;;;22.30;68.40;;;;;;5055572;28;20071;-70
2023/08/08 10:36:16;;;;;;;2.05;1.17;;;22.40;68.30;;;;;;5063316;28;20158;-70
2023/08/08 10:38:43;;;;;;;1.70;1.17;;;22.60;68.30;;;;;;5052707;28;20036;-70
2023/08/08 10:41:14;;;;;;;3.63;1.90;;;22.80;68.20;;;;;;5057713;28;20102;-70
2023/08/08 10:43:50;;;;;;;1.73;1.10;;;22.90;68.00;;;;;;5055391;28;20044;-70
2023/08/08 10:46:30;;;;;;;0.77;0.77;;;23.00;67.80;;;;;;5063413;28;20086;-70
2023/08/08 10:49:02;;;;;;;1.20;1.00;;;23.10;67.80;;;;;;5064693;28;20140;-70
2023/08/08 10:51:43;;;;;;;2.63;1.00;;;23.10;67.60;;;;;;5071854;28;20037;-70
2023/08/08 10:54:23;;;;;;;1.63;0.88;;;23.20;67.50;;;;;;5054750;28;20389;-70
2023/08/08 10:56:54;;;;;;;1.77;0.93;;;23.30;67.50;;;;;;5057444;28;20508;-70
2023/08/08 10:59:41;;;;;;;2.70;1.60;;;23.30;67.40;;;;;;5051387;28;20496;-70
2023/08/08 11:02:09;;;;;;;0.90;0.80;;;23.40;67.40;;;;;;5054091;28;20067;-70
2023/08/08 11:04:36;;;;;;;0.70;0.68;;;23.40;67.30;;;;;;5062195;28;20356;-69
2023/08/08 11:07:02;;;;;;;1.73;0.82;;;23.40;67.10;;;;;;5062254;28;20036;-70
2023/08/08 11:09:30;;;;;;;1.90;1.25;;;23.50;67.20;;;;;;5062171;28;20066;-70
2023/08/08 11:11:59;;;;;;;1.35;0.90;;;23.60;67.20;;;;;;5061767;28;20043;-69
2023/08/08 11:14:25;;;;;;;0.88;0.70;;;23.70;67.10;;;;;;5065397;28;20028;-70
2023/08/08 11:16:52;;;;;;;1.60;0.80;;;23.80;67.00;;;;;;5055358;28;20134;-70
2023/08/08 11:19:22;;;;;;;1.45;1.10;;;23.90;67.00;;;;;;5064760;28;20044;-69
2023/08/08 11:21:49;;;;;;;2.40;1.38;;;24.00;66.90;;;;;;5057670;28;20042;-70
2023/08/08 11:24:15;;;;;;;1.10;0.80;;;24.10;67.50;;;;;;5052223;28;20165;-70
2023/08/08 11:26:45;;;;;;;1.45;0.60;;;24.10;66.70;;;;;;5058358;28;20054;-69
2023/08/08 11:29:11;;;;;;;1.85;1.30;;;24.10;66.70;;;;;;5055929;28;20035;-70
2023/08/08 11:31:37;;;;;;;3.47;1.15;;;24.10;66.70;;;;;;5056457;28;20032;-70
2023/08/08 11:34:04;;;;;;;4.65;1.17;;;24.10;66.70;;;;;;5057615;28;20054;-70
2023/08/08 11:36:35;;;;;;;1.73;1.05;;;24.10;66.70;;;;;;5065790;28;20044;-70
2023/08/08 11:39:09;;;;;;;2.42;1.00;;;24.00;66.70;;;;;;5055981;28;20510;-70
2023/08/08 11:41:36;;;;;;;1.00;0.90;;;23.90;66.70;;;;;;5058509;28;20033;-69
2023/08/08 11:44:04;;;;;;;1.80;0.85;;;23.90;66.90;;;;;;5052641;28;20035;-70
2023/08/08 11:46:30;;;;;;;2.35;0.93;;;23.80;66.80;;;;;;5058499;28;20064;-70
2023/08/08 11:49:06;;;;;;;3.83;1.42;;;23.80;66.80;;;;;;5058567;28;20047;-70
2023/08/08 11:51:35;;;;;;;3.05;1.20;;;23.80;66.80;;;;;;5059121;28;20470;-70
2023/08/08 11:54:07;;;;;;;2.35;1.33;;;23.80;66.80;;;;;;5059318;28;20037;-70
2023/08/08 11:56:36;;;;;;;2.10;1.02;;;23.80;66.80;;;;;;5065908;28;20154;-71
2023/08/08 11:59:04;;;;;;;2.47;0.90;;;24.00;67.10;;;;;;5063049;28;20139;-69
2023/08/08 12:01:32;;;;;;;2.38;1.23;;;24.10;67.10;;;;;;5063961;28;20145;-70
2023/08/08 12:04:04;;;;;;;2.45;0.88;;;24.40;67.30;;;;;;5058828;28;20417;-70
2023/08/08 12:06:30;;;;;;;2.17;0.80;;;24.60;67.10;;;;;;5063090;28;20082;-69
2023/08/08 12:08:57;;;;;;;2.50;1.40;;;25.00;67.10;;;;;;5046978;28;20064;-69
2023/08/08 12:11:23;;;;;;;1.13;0.73;;;25.20;66.60;;;;;;5053283;28;20039;-69
2023/08/08 12:13:49;;;;;;;1.98;0.93;;;25.30;66.30;;;;;;5069962;28;20040;-70
2023/08/08 12:16:17;;;;;;;2.45;0.75;;;25.30;66.00;;;;;;5062432;28;20036;-69
2023/08/08 12:18:44;;;;;;;1.52;0.82;;;25.40;66.00;;;;;;5059300;28;20036;-70
2023/08/08 12:21:10;;;;;;;1.00;0.57;;;25.40;66.00;;;;;;5059459;28;20032;-69
2023/08/08 12:23:37;;;;;;;0.65;0.60;;;25.50;65.90;;;;;;5055950;28;20072;-70
2023/08/08 12:26:08;;;;;;;1.35;0.68;;;25.50;65.80;;;;;;5066656;28;20031;-70
2023/08/08 12:28:36;;;;;;;0.65;0.50;;;25.50;65.70;;;;;;5056268;28;20617;-71
2023/08/08 12:31:07;;;;;;;1.85;0.90;;;25.60;65.60;;;;;;5061529;28;20028;-70
2023/08/08 12:33:34;;;;;;;5.18;1.23;;;25.70;65.50;;;;;;5058874;28;20028;-69
2023/08/08 12:36:03;;;;;;;2.95;0.80;;;25.80;65.30;;;;;;5064453;28;20143;-70
2023/08/08 12:38:29;;;;;;;0.90;0.60;;;25.90;65.10;;;;;;5059695;28;20473;-70
2023/08/08 12:40:55;;;;;;;2.50;0.85;;;26.00;64.90;;;;;;5061892;28;20089;-70
2023/08/08 12:43:21;;;;;;;2.40;0.85;;;26.00;64.90;;;;;;5059000;28;20651;-70
2023/08/08 12:45:47;;;;;;;1.23;0.77;;;25.90;64.80;;;;;;5062560;28;20035;-70
2023/08/08 12:48:14;;;;;;;1.10;0.55;;;25.80;64.90;;;;;;5054752;28;20036;-70